Time;durP1;ratioP1;P1;durP2;ratioP2;P2;SDS_P1;SDS_P2;PMS_P1;PMS_P2;Temp;Humidity;BMP_temperature;BMP_pressure;BME280_temperature;BME280_humidity;BME280_pressure;Samples;Min_cycle;Max_cycle;Signal;HPM_P1;HPM_P2
2023/06/04 00:01:13;;;;;;;1.33;0.52;;;20.80;1.00;;;;;;4897940;29;20382;-53
2023/06/04 00:03:43;;;;;;;2.70;0.52;;;20.90;1.00;;;;;;4905334;29;20114;-54
2023/06/04 00:06:10;;;;;;;2.28;1.02;;;20.90;1.00;;;;;;4897478;29;20151;-50
2023/06/04 00:08:36;;;;;;;3.58;0.65;;;20.80;1.00;;;;;;4898775;29;20075;-51
2023/06/04 00:11:03;;;;;;;3.53;0.80;;;20.80;1.00;;;;;;4898348;29;20072;-51
2023/06/04 00:13:31;;;;;;;2.55;1.20;;;20.80;1.00;;;;;;4933519;23;20056;-52
2023/06/04 00:15:57;;;;;;;0.88;0.50;;;20.80;1.00;;;;;;4898582;29;20048;-51
2023/06/04 00:18:25;;;;;;;1.40;1.20;;;20.80;1.00;;;;;;4898570;29;20055;-50
2023/06/04 00:20:52;;;;;;;1.38;0.40;;;20.80;1.00;;;;;;4890699;29;20047;-50
2023/06/04 00:23:19;;;;;;;1.75;0.60;;;20.80;1.00;;;;;;4897594;29;20100;-54
2023/06/04 00:25:46;;;;;;;1.58;0.63;;;20.80;1.00;;;;;;4898491;29;20064;-48
2023/06/04 00:28:13;;;;;;;1.95;0.68;;;20.80;1.00;;;;;;4898501;29;20096;-54
2023/06/04 00:30:39;;;;;;;1.45;0.40;;;20.80;1.00;;;;;;4905595;29;20044;-51
2023/06/04 00:33:06;;;;;;;1.63;0.90;;;20.80;1.00;;;;;;4898450;29;20150;-51
2023/06/04 00:35:33;;;;;;;1.35;0.65;;;20.80;1.00;;;;;;4906111;29;20050;-53
2023/06/04 00:38:00;;;;;;;2.97;0.95;;;20.80;1.00;;;;;;4898113;29;20100;-48
2023/06/04 00:40:26;;;;;;;2.92;0.50;;;20.80;1.00;;;;;;4898290;29;20055;-54
2023/06/04 00:42:55;;;;;;;3.08;0.90;;;20.80;1.00;;;;;;4979917;23;20346;-49
2023/06/04 00:45:25;;;;;;;1.80;0.43;;;20.70;1.00;;;;;;4889878;29;20124;-52
2023/06/04 00:47:53;;;;;;;1.75;0.63;;;20.70;1.00;;;;;;4879477;29;20041;-50
2023/06/04 00:50:22;;;;;;;2.22;0.60;;;20.70;1.00;;;;;;4879091;29;20053;-52
2023/06/04 00:52:50;;;;;;;1.35;0.52;;;20.70;1.00;;;;;;4879054;29;20057;-49
2023/06/04 00:55:18;;;;;;;1.83;0.38;;;20.70;1.00;;;;;;4893583;29;20517;-48
2023/06/04 00:57:45;;;;;;;1.30;0.50;;;20.70;1.00;;;;;;4885570;29;20052;-48
2023/06/04 01:00:13;;;;;;;1.52;0.60;;;20.70;1.00;;;;;;4901039;29;20067;-49
2023/06/04 01:02:43;;;;;;;2.78;0.90;;;20.70;1.00;;;;;;4886818;29;20047;-50
2023/06/04 01:05:29;;;;;;;1.75;0.40;;;20.70;1.00;;;;;;4879462;29;20041;-53
2023/06/04 01:07:57;;;;;;;1.55;0.40;;;20.70;1.00;;;;;;4877691;29;20045;-49
2023/06/04 01:10:24;;;;;;;3.17;0.98;;;20.70;1.00;;;;;;4877496;29;20041;-53
2023/06/04 01:12:51;;;;;;;2.78;0.90;;;20.70;1.00;;;;;;4877266;29;20041;-51
2023/06/04 01:15:40;;;;;;;1.35;0.70;;;20.70;1.00;;;;;;4880805;29;20132;-51
2023/06/04 01:18:06;;;;;;;1.33;0.68;;;20.70;1.00;;;;;;4882474;29;20037;-51
2023/06/04 01:20:46;;;;;;;3.72;0.60;;;20.70;1.00;;;;;;4879877;29;20056;-49
2023/06/04 01:23:33;;;;;;;4.00;0.55;;;20.60;1.00;;;;;;4878043;29;20045;-51
2023/06/04 01:26:04;;;;;;;2.97;0.93;;;20.70;1.00;;;;;;4886203;29;20518;-51
2023/06/04 01:28:33;;;;;;;1.95;0.82;;;20.60;1.00;;;;;;4877420;29;20057;-52
2023/06/04 01:31:01;;;;;;;4.35;1.20;;;20.60;1.00;;;;;;4877434;29;20041;-52
2023/06/04 01:33:28;;;;;;;2.90;0.80;;;20.60;1.00;;;;;;4881120;29;20041;-49
2023/06/04 01:35:57;;;;;;;2.70;0.60;;;20.60;1.00;;;;;;4874311;29;20040;-48
2023/06/04 01:38:23;;;;;;;5.00;0.63;;;20.60;1.00;;;;;;4881352;29;20044;-52
2023/06/04 01:40:52;;;;;;;1.60;0.65;;;20.60;1.00;;;;;;4876774;29;20087;-52
2023/06/04 01:43:19;;;;;;;3.28;1.02;;;20.60;1.00;;;;;;4877220;29;20136;-48
2023/06/04 01:45:47;;;;;;;1.60;0.82;;;20.60;1.00;;;;;;4925225;23;20064;-50
2023/06/04 01:48:14;;;;;;;2.10;0.60;;;20.60;1.00;;;;;;4878386;29;20040;-49
2023/06/04 01:50:40;;;;;;;1.80;1.10;;;20.60;1.00;;;;;;4877086;29;20049;-51
2023/06/04 01:53:07;;;;;;;1.40;0.60;;;20.60;1.00;;;;;;4878339;29;20128;-49
2023/06/04 01:55:34;;;;;;;2.30;0.65;;;20.60;1.00;;;;;;4876786;29;20053;-52
2023/06/04 01:58:01;;;;;;;1.83;0.50;;;20.60;1.00;;;;;;4878295;29;20573;-50
2023/06/04 02:00:29;;;;;;;2.60;0.40;;;20.60;1.00;;;;;;4876676;29;20053;-53
2023/06/04 02:02:56;;;;;;;1.52;0.43;;;20.60;1.00;;;;;;4877934;29;20052;-53
2023/06/04 02:05:24;;;;;;;1.42;0.60;;;20.60;1.00;;;;;;4876966;29;20048;-53
2023/06/04 02:07:51;;;;;;;5.35;0.80;;;20.60;1.00;;;;;;4878096;29;20052;-50
2023/06/04 02:10:19;;;;;;;1.23;0.50;;;20.50;1.00;;;;;;4877888;29;20524;-53
2023/06/04 02:13:12;;;;;;;2.55;0.98;;;20.50;1.00;;;;;;4876519;29;20497;-49
2023/06/04 02:15:39;;;;;;;3.00;0.55;;;20.50;1.00;;;;;;5036252;23;20083;-50
2023/06/04 02:18:16;;;;;;;1.55;0.40;;;20.50;1.00;;;;;;4896621;29;20119;-53
2023/06/04 02:20:48;;;;;;;2.88;0.70;;;20.50;1.00;;;;;;4896394;29;20496;-52
2023/06/04 02:23:16;;;;;;;5.05;0.80;;;20.50;1.00;;;;;;4897186;29;20517;-49
2023/06/04 02:25:44;;;;;;;2.17;0.40;;;20.50;1.00;;;;;;4899037;29;20048;-49
2023/06/04 02:28:12;;;;;;;1.88;0.52;;;20.50;1.00;;;;;;4904218;29;20040;-54
2023/06/04 02:30:38;;;;;;;1.63;0.63;;;20.50;1.00;;;;;;4903522;29;20552;-51
2023/06/04 02:33:05;;;;;;;3.03;0.70;;;20.50;1.00;;;;;;4905971;29;20125;-48
2023/06/04 02:35:32;;;;;;;1.20;0.70;;;20.50;1.00;;;;;;4900416;29;20044;-48
2023/06/04 02:38:00;;;;;;;2.92;1.23;;;20.50;1.00;;;;;;4908346;29;20404;-49
2023/06/04 02:40:30;;;;;;;6.80;0.57;;;20.50;1.00;;;;;;4900324;29;20112;-50
2023/06/04 02:42:57;;;;;;;4.47;0.50;;;20.50;1.00;;;;;;4900162;29;20045;-49
2023/06/04 02:45:24;;;;;;;1.98;0.68;;;20.50;1.00;;;;;;4987679;23;20065;-53
2023/06/04 02:47:51;;;;;;;2.95;0.85;;;20.50;1.00;;;;;;4879927;29;20576;-51
2023/06/04 02:50:19;;;;;;;4.70;0.50;;;20.40;1.00;;;;;;4881306;29;20049;-52
2023/06/04 02:52:46;;;;;;;2.13;0.70;;;20.50;1.00;;;;;;4880053;29;20098;-50
2023/06/04 02:55:13;;;;;;;18.25;0.98;;;20.40;1.00;;;;;;4879792;29;20405;-53
2023/06/04 02:57:42;;;;;;;1.17;0.47;;;20.40;1.00;;;;;;4889635;29;20472;-50
2023/06/04 03:00:14;;;;;;;1.85;0.90;;;20.40;1.00;;;;;;4887817;29;20041;-50
2023/06/04 03:02:43;;;;;;;1.60;0.70;;;20.40;1.00;;;;;;4879880;29;20069;-50
2023/06/04 03:05:12;;;;;;;3.55;0.55;;;20.40;1.00;;;;;;4879831;29;20462;-51
2023/06/04 03:07:43;;;;;;;2.80;0.52;;;20.40;1.00;;;;;;4879667;29;20056;-50
2023/06/04 03:10:12;;;;;;;1.98;0.70;;;20.40;1.00;;;;;;4879612;29;20108;-49
2023/06/04 03:12:38;;;;;;;2.08;0.77;;;20.40;1.00;;;;;;4887246;29;20516;-49
2023/06/04 03:15:06;;;;;;;1.80;0.70;;;20.40;1.00;;;;;;4881056;29;20041;-51
2023/06/04 03:17:33;;;;;;;3.13;0.90;;;20.40;1.00;;;;;;5035053;23;20130;-50
2023/06/04 03:20:00;;;;;;;2.70;0.65;;;20.40;1.00;;;;;;4897015;29;20049;-54
2023/06/04 03:22:28;;;;;;;2.67;0.43;;;20.40;1.00;;;;;;4897344;29;20489;-54
2023/06/04 03:24:55;;;;;;;2.42;0.70;;;20.30;1.00;;;;;;4898863;29;20048;-48
2023/06/04 03:27:22;;;;;;;1.20;0.50;;;20.40;1.00;;;;;;4897774;29;20085;-52
2023/06/04 03:29:49;;;;;;;3.78;0.77;;;20.30;1.00;;;;;;4913200;29;20050;-50
2023/06/04 03:32:17;;;;;;;1.88;0.63;;;20.30;1.00;;;;;;4905624;29;20047;-52
2023/06/04 03:34:45;;;;;;;3.13;0.60;;;20.30;1.00;;;;;;4897663;29;20568;-53
2023/06/04 03:37:12;;;;;;;2.10;0.63;;;20.30;1.00;;;;;;4898090;29;20064;-53
2023/06/04 03:39:39;;;;;;;1.95;0.70;;;20.40;1.00;;;;;;4899061;29;20056;-51
2023/06/04 03:42:08;;;;;;;1.60;0.60;;;20.40;1.00;;;;;;4897921;29;20076;-53
2023/06/04 03:44:35;;;;;;;1.73;0.50;;;20.30;1.00;;;;;;4897728;29;20053;-54
2023/06/04 03:47:03;;;;;;;2.65;0.68;;;20.30;1.00;;;;;;4899115;29;20080;-50
2023/06/04 03:49:30;;;;;;;1.38;0.70;;;20.30;1.00;;;;;;4897911;29;20049;-51
2023/06/04 03:51:57;;;;;;;1.55;0.57;;;20.30;1.00;;;;;;4900172;29;20045;-52
2023/06/04 03:54:24;;;;;;;5.70;1.45;;;20.30;1.00;;;;;;4897390;29;20644;-53
2023/06/04 03:56:51;;;;;;;0.98;0.43;;;20.30;1.00;;;;;;4898069;29;20139;-51
2023/06/04 03:59:18;;;;;;;2.45;0.82;;;20.30;1.00;;;;;;4913288;29;20048;-52
2023/06/04 04:01:46;;;;;;;1.40;0.52;;;20.30;1.00;;;;;;4897569;29;20055;-52
2023/06/04 04:04:14;;;;;;;2.58;0.80;;;20.30;1.00;;;;;;4913151;29;20044;-51
2023/06/04 04:06:41;;;;;;;3.25;0.60;;;20.30;1.00;;;;;;4898604;29;20048;-51
2023/06/04 04:09:10;;;;;;;2.30;0.70;;;20.30;1.00;;;;;;4897114;29;20076;-49
2023/06/04 04:11:37;;;;;;;4.30;0.90;;;20.30;1.00;;;;;;4897282;29;20055;-50
2023/06/04 04:14:04;;;;;;;2.78;0.65;;;20.30;1.00;;;;;;4896858;29;20047;-51
2023/06/04 04:19:18;;;;;;;1.30;0.40;;;20.30;1.00;;;;;;4857447;29;20061;-53
2023/06/04 04:21:48;;;;;;;2.60;0.65;;;20.30;1.00;;;;;;4859728;29;20498;-49
2023/06/04 04:24:27;;;;;;;3.10;0.77;;;20.20;1.00;;;;;;4859900;29;20065;-53
2023/06/04 04:26:58;;;;;;;1.60;0.73;;;20.20;1.00;;;;;;4875009;29;20057;-49
2023/06/04 04:29:27;;;;;;;3.15;1.20;;;20.20;1.00;;;;;;4859751;29;20077;-48
2023/06/04 04:31:58;;;;;;;4.03;0.85;;;20.20;1.00;;;;;;4859536;29;20070;-53
2023/06/04 04:34:26;;;;;;;3.20;0.60;;;20.20;1.00;;;;;;4859656;29;20042;-50
2023/06/04 04:36:54;;;;;;;1.50;0.65;;;20.20;1.00;;;;;;4875123;29;20050;-49
2023/06/04 04:39:26;;;;;;;0.80;0.40;;;20.20;1.00;;;;;;4859828;29;20445;-53
2023/06/04 04:41:56;;;;;;;2.47;1.25;;;20.20;1.00;;;;;;4875143;29;20140;-53
2023/06/04 04:44:23;;;;;;;2.25;1.05;;;20.20;1.00;;;;;;4859448;29;20052;-49
2023/06/04 04:46:51;;;;;;;2.35;0.73;;;20.20;1.00;;;;;;4874425;29;20057;-47
2023/06/04 04:49:18;;;;;;;3.50;0.90;;;20.20;1.00;;;;;;5259679;23;20509;-51
2023/06/04 04:51:45;;;;;;;1.52;0.65;;;20.20;1.00;;;;;;4894694;29;20057;-49
2023/06/04 04:54:13;;;;;;;2.97;0.65;;;20.20;1.00;;;;;;4905284;29;20550;-50
2023/06/04 04:56:41;;;;;;;5.07;0.80;;;20.20;1.00;;;;;;4885616;29;20144;-51
2023/06/04 04:59:08;;;;;;;1.52;0.40;;;20.20;1.00;;;;;;4885981;29;20052;-51
2023/06/04 05:01:35;;;;;;;4.82;0.90;;;20.10;1.00;;;;;;4883999;29;20063;-55
2023/06/04 05:04:02;;;;;;;1.67;0.70;;;20.20;1.00;;;;;;4883803;29;20053;-51
2023/06/04 05:06:32;;;;;;;2.05;0.77;;;20.10;1.00;;;;;;4872898;29;20511;-50
2023/06/04 05:08:59;;;;;;;2.42;0.65;;;20.10;1.00;;;;;;4877688;29;20492;-50
2023/06/04 05:11:27;;;;;;;1.88;0.50;;;20.20;1.00;;;;;;4875890;29;20102;-49
2023/06/04 05:13:53;;;;;;;2.90;0.70;;;20.10;1.00;;;;;;4877135;29;20077;-51
2023/06/04 05:16:22;;;;;;;1.58;0.70;;;20.10;1.00;;;;;;4877455;29;20100;-49
2023/06/04 05:18:51;;;;;;;3.20;0.77;;;20.10;1.00;;;;;;4874685;29;20239;-48
2023/06/04 05:21:21;;;;;;;1.98;0.70;;;20.20;1.00;;;;;;4922901;23;20410;-47
2023/06/04 05:23:54;;;;;;;1.10;0.50;;;20.20;1.00;;;;;;4873143;29;20049;-47
2023/06/04 05:26:28;;;;;;;2.97;0.40;;;20.20;1.00;;;;;;4858512;29;20084;-47
2023/06/04 05:28:58;;;;;;;1.23;0.52;;;20.10;1.00;;;;;;4858401;29;20046;-47
2023/06/04 05:31:27;;;;;;;5.07;0.40;;;20.20;1.00;;;;;;4871557;29;20049;-47
2023/06/04 05:33:57;;;;;;;1.55;0.40;;;20.20;1.00;;;;;;4887555;29;20045;-47
2023/06/04 05:36:26;;;;;;;2.35;0.70;;;20.20;1.00;;;;;;4858487;29;20074;-49
2023/06/04 05:38:57;;;;;;;2.78;0.70;;;20.20;1.00;;;;;;4858254;29;20054;-47
2023/06/04 05:41:29;;;;;;;3.42;0.60;;;20.20;1.00;;;;;;4884343;29;20148;-48
2023/06/04 05:43:58;;;;;;;3.95;0.70;;;20.20;1.00;;;;;;4858064;29;20148;-48
2023/06/04 05:46:25;;;;;;;4.07;0.93;;;20.20;1.00;;;;;;4858812;29;20505;-47
2023/06/04 05:48:53;;;;;;;2.33;0.80;;;20.20;1.00;;;;;;4887243;29;20064;-48
2023/06/04 05:51:22;;;;;;;1.50;0.90;;;20.20;1.00;;;;;;5104863;23;20136;-47
2023/06/04 05:53:49;;;;;;;2.78;1.10;;;20.20;1.00;;;;;;4838993;29;20050;-47
2023/06/04 05:56:16;;;;;;;3.72;1.20;;;20.20;1.00;;;;;;4839396;29;20081;-48
2023/06/04 05:58:50;;;;;;;1.73;0.98;;;20.20;1.00;;;;;;4839181;29;20057;-49
2023/06/04 06:01:17;;;;;;;1.83;0.75;;;20.20;1.00;;;;;;4841326;29;20042;-47
2023/06/04 06:03:44;;;;;;;2.10;1.10;;;20.20;1.00;;;;;;4839563;29;20633;-50
2023/06/04 06:06:12;;;;;;;2.10;0.60;;;20.20;1.00;;;;;;4847907;29;20054;-47
2023/06/04 06:08:39;;;;;;;2.90;1.13;;;20.20;1.00;;;;;;4840085;29;20050;-50
2023/06/04 06:11:07;;;;;;;4.63;0.80;;;20.30;1.00;;;;;;4839557;29;20056;-49
2023/06/04 06:13:37;;;;;;;10.57;1.48;;;20.20;1.00;;;;;;4841196;29;20046;-47
2023/06/04 06:16:04;;;;;;;6.65;1.10;;;20.30;1.00;;;;;;4839510;29;20137;-47
2023/06/04 06:18:32;;;;;;;3.72;0.75;;;20.30;1.00;;;;;;4839700;29;20144;-48
2023/06/04 06:20:59;;;;;;;2.30;0.90;;;20.40;1.00;;;;;;4839751;29;20441;-48
2023/06/04 06:23:26;;;;;;;5.43;1.42;;;20.50;1.00;;;;;;4891425;24;20126;-49
2023/06/04 06:25:53;;;;;;;6.32;0.95;;;20.50;1.00;;;;;;4905025;29;20136;-47
2023/06/04 06:28:23;;;;;;;5.35;1.10;;;20.60;1.00;;;;;;4876221;29;20055;-48
2023/06/04 06:30:51;;;;;;;2.85;1.30;;;20.70;1.00;;;;;;4869275;29;20133;-48
2023/06/04 06:33:21;;;;;;;4.60;1.20;;;20.70;1.00;;;;;;4874524;29;20041;-47
2023/06/04 06:35:48;;;;;;;2.63;0.70;;;20.80;1.00;;;;;;4870365;29;20072;-49
2023/06/04 06:38:15;;;;;;;3.47;0.77;;;20.90;1.00;;;;;;4877260;29;20509;-47
2023/06/04 06:40:44;;;;;;;9.57;0.80;;;20.90;1.00;;;;;;4875093;29;20052;-49
2023/06/04 06:43:11;;;;;;;9.23;1.10;;;21.00;1.00;;;;;;4877574;29;20040;-48
2023/06/04 06:45:38;;;;;;;8.35;1.23;;;21.00;1.00;;;;;;4874496;29;20557;-47
2023/06/04 06:48:05;;;;;;;4.68;0.70;;;21.00;1.00;;;;;;4866992;29;20049;-47
2023/06/04 06:50:35;;;;;;;5.05;1.30;;;21.10;1.00;;;;;;4875489;29;20041;-51
2023/06/04 06:53:05;;;;;;;4.15;0.88;;;21.10;1.00;;;;;;4876170;29;20049;-47
2023/06/04 06:55:31;;;;;;;3.72;1.13;;;21.10;1.00;;;;;;4897603;23;20063;-47
2023/06/04 06:57:58;;;;;;;5.53;1.23;;;21.10;1.00;;;;;;4903574;29;20059;-50
2023/06/04 07:00:27;;;;;;;2.55;0.77;;;21.10;1.00;;;;;;4900923;29;20075;-47
2023/06/04 07:02:55;;;;;;;1.77;0.80;;;21.10;1.00;;;;;;4902604;29;20075;-48
2023/06/04 07:05:22;;;;;;;2.45;0.80;;;21.10;1.00;;;;;;4886989;29;20139;-48
2023/06/04 07:07:49;;;;;;;3.22;0.60;;;21.20;1.00;;;;;;4882204;29;20478;-49
2023/06/04 07:10:16;;;;;;;4.63;1.00;;;21.20;1.00;;;;;;4880415;29;20036;-47
2023/06/04 07:12:43;;;;;;;2.55;0.77;;;21.20;1.00;;;;;;4887129;29;20053;-49
2023/06/04 07:15:10;;;;;;;5.00;1.02;;;21.20;1.00;;;;;;4876743;29;20057;-49
2023/06/04 07:17:36;;;;;;;2.95;0.88;;;21.30;1.00;;;;;;4885059;29;20048;-48
2023/06/04 07:20:06;;;;;;;2.47;0.82;;;21.30;1.00;;;;;;4888565;29;20044;-48
2023/06/04 07:22:34;;;;;;;3.65;1.05;;;21.30;1.00;;;;;;4884621;29;20113;-48
2023/06/04 07:25:00;;;;;;;1.85;0.60;;;21.30;1.00;;;;;;5017214;23;21407;-48
2023/06/04 07:27:28;;;;;;;3.83;0.88;;;21.30;1.00;;;;;;4879726;29;20045;-48
2023/06/04 07:29:54;;;;;;;1.83;0.68;;;21.40;1.00;;;;;;4880318;29;20113;-49
2023/06/04 07:32:21;;;;;;;1.83;0.47;;;21.40;1.00;;;;;;4881632;29;20087;-48
2023/06/04 07:34:48;;;;;;;8.70;1.30;;;21.40;1.00;;;;;;4880325;29;20093;-48
2023/06/04 07:37:15;;;;;;;3.67;1.33;;;21.40;1.00;;;;;;4879321;29;20041;-53
2023/06/04 07:39:42;;;;;;;3.67;1.05;;;21.40;1.00;;;;;;4880471;29;20045;-49
2023/06/04 07:42:09;;;;;;;7.30;1.23;;;21.40;1.00;;;;;;4888436;29;20095;-48
2023/06/04 07:44:38;;;;;;;2.38;0.70;;;21.50;1.00;;;;;;4880297;29;20052;-49
2023/06/04 07:47:05;;;;;;;2.50;0.90;;;21.50;1.00;;;;;;4878695;29;20541;-49
2023/06/04 07:49:32;;;;;;;2.10;0.88;;;21.50;1.00;;;;;;4878460;29;20049;-48
2023/06/04 07:51:59;;;;;;;3.63;0.95;;;21.50;1.00;;;;;;4879184;29;20518;-48
2023/06/04 07:54:26;;;;;;;3.35;1.42;;;21.50;1.00;;;;;;4880414;29;20525;-50
2023/06/04 07:56:55;;;;;;;6.07;1.30;;;21.60;1.00;;;;;;5276972;23;20064;-48
2023/06/04 07:59:23;;;;;;;5.65;0.85;;;21.60;1.00;;;;;;4877931;29;20513;-52
2023/06/04 08:01:54;;;;;;;3.67;0.90;;;21.60;1.00;;;;;;4860373;29;20056;-48
2023/06/04 08:04:21;;;;;;;2.22;0.98;;;21.60;1.00;;;;;;4877557;29;20519;-49
2023/06/04 08:06:49;;;;;;;2.65;0.88;;;21.70;1.00;;;;;;4895470;29;20045;-48
2023/06/04 08:09:16;;;;;;;4.75;1.00;;;21.70;1.00;;;;;;4898564;29;20479;-48
2023/06/04 08:11:44;;;;;;;4.97;1.02;;;21.70;1.00;;;;;;4898148;29;20143;-47
2023/06/04 08:14:12;;;;;;;1.23;0.38;;;21.70;1.00;;;;;;4898514;29;20083;-48
2023/06/04 08:16:40;;;;;;;3.78;0.88;;;21.70;1.00;;;;;;4902490;29;20127;-48
2023/06/04 08:19:07;;;;;;;5.30;1.67;;;21.70;1.00;;;;;;4895861;29;20055;-48
2023/06/04 08:21:34;;;;;;;2.33;0.85;;;21.80;1.00;;;;;;4903008;29;20520;-49
2023/06/04 08:24:02;;;;;;;2.42;0.85;;;21.80;1.00;;;;;;4898385;29;20136;-49
2023/06/04 08:26:30;;;;;;;4.57;0.88;;;21.80;1.00;;;;;;4901711;29;20059;-49
2023/06/04 08:28:57;;;;;;;3.63;1.00;;;21.80;1.00;;;;;;4985638;23;20122;-46
2023/06/04 08:31:24;;;;;;;1.70;1.02;;;21.80;1.00;;;;;;4878505;29;20040;-51
2023/06/04 08:33:51;;;;;;;2.28;1.00;;;21.90;1.00;;;;;;4882495;29;20489;-47
2023/06/04 08:36:18;;;;;;;5.10;0.93;;;21.90;1.00;;;;;;4879267;29;20097;-47
2023/06/04 08:38:45;;;;;;;2.05;0.70;;;21.90;1.00;;;;;;4885879;29;20049;-47
2023/06/04 08:41:38;;;;;;;3.22;0.80;;;21.90;1.00;;;;;;4879818;29;20049;-50
2023/06/04 08:44:06;;;;;;;5.10;0.75;;;21.90;1.00;;;;;;4879276;29;20053;-47
2023/06/04 08:46:36;;;;;;;2.13;0.90;;;21.90;1.00;;;;;;4878362;29;20068;-49
2023/06/04 08:49:03;;;;;;;1.85;0.57;;;21.90;1.00;;;;;;4884256;29;20052;-48
2023/06/04 08:51:33;;;;;;;10.70;1.02;;;22.00;1.00;;;;;;4878959;29;20466;-49
2023/06/04 08:54:00;;;;;;;2.03;0.70;;;22.00;1.00;;;;;;4877640;29;20105;-47
2023/06/04 08:56:32;;;;;;;2.38;0.80;;;22.00;1.00;;;;;;4878174;29;20055;-48
2023/06/04 08:59:07;;;;;;;2.20;0.80;;;22.00;1.00;;;;;;4904253;23;20049;-47
2023/06/04 09:01:36;;;;;;;6.78;1.00;;;22.10;1.00;;;;;;4883297;29;20096;-50
2023/06/04 09:04:05;;;;;;;4.47;1.10;;;22.10;1.00;;;;;;4880803;29;20049;-49
2023/06/04 09:06:37;;;;;;;3.22;1.10;;;22.10;1.00;;;;;;4865726;29;20565;-48
2023/06/04 09:09:09;;;;;;;1.48;0.80;;;22.10;1.00;;;;;;4871129;29;20055;-48
2023/06/04 09:11:40;;;;;;;1.83;0.70;;;22.10;1.00;;;;;;4875401;29;20045;-48
2023/06/04 09:14:11;;;;;;;2.72;0.50;;;22.10;1.00;;;;;;4869571;29;20056;-49
2023/06/04 09:16:53;;;;;;;3.25;0.85;;;22.20;1.00;;;;;;4871600;29;20459;-48
2023/06/04 09:19:21;;;;;;;4.82;0.73;;;22.20;1.00;;;;;;4873463;29;20056;-49
2023/06/04 09:21:56;;;;;;;2.50;0.98;;;22.20;1.00;;;;;;4869335;29;20053;-48
2023/06/04 09:24:24;;;;;;;3.35;0.95;;;22.20;1.00;;;;;;4863616;29;20140;-48
2023/06/04 09:26:52;;;;;;;1.75;1.05;;;22.20;1.00;;;;;;4870863;29;20451;-49
2023/06/04 09:29:19;;;;;;;2.00;0.55;;;22.20;1.00;;;;;;4865988;29;20506;-49
2023/06/04 09:31:47;;;;;;;3.42;1.15;;;22.20;1.00;;;;;;4861198;29;20038;-48
2023/06/04 09:34:14;;;;;;;2.60;1.25;;;22.30;1.00;;;;;;4864435;29;20124;-48
2023/06/04 09:36:42;;;;;;;3.97;1.05;;;22.30;1.00;;;;;;4872077;29;20472;-48
2023/06/04 09:39:16;;;;;;;4.03;0.80;;;22.30;1.00;;;;;;4870600;29;20064;-50
2023/06/04 09:41:43;;;;;;;3.50;0.82;;;22.30;1.00;;;;;;4867983;29;20033;-50
2023/06/04 09:44:11;;;;;;;6.47;0.70;;;22.30;1.00;;;;;;4858585;29;20046;-48
2023/06/04 09:46:38;;;;;;;6.55;1.25;;;22.30;1.00;;;;;;4862927;29;20045;-49
2023/06/04 09:49:05;;;;;;;3.03;1.13;;;22.30;1.00;;;;;;4857772;29;20048;-51
2023/06/04 09:51:33;;;;;;;7.68;1.10;;;22.30;1.00;;;;;;4857158;29;20519;-48
2023/06/04 09:54:02;;;;;;;2.83;1.73;;;22.40;1.00;;;;;;4855821;29;20050;-48
2023/06/04 09:56:29;;;;;;;2.35;0.95;;;22.30;1.00;;;;;;4860175;29;20120;-51
2023/06/04 09:59:03;;;;;;;3.80;1.58;;;22.30;1.00;;;;;;4875397;29;20037;-53
2023/06/04 10:01:30;;;;;;;3.60;1.20;;;22.30;1.00;;;;;;4979249;23;20060;-53
2023/06/04 10:04:03;;;;;;;3.92;1.00;;;22.30;1.00;;;;;;4864491;29;20042;-50
2023/06/04 10:06:34;;;;;;;5.63;1.33;;;22.20;1.00;;;;;;4853888;29;20374;-54
2023/06/04 10:09:13;;;;;;;4.32;1.27;;;22.20;1.00;;;;;;4849884;29;20110;-52
2023/06/04 10:11:48;;;;;;;5.60;0.95;;;22.10;1.00;;;;;;4847035;29;20046;-53
2023/06/04 10:14:26;;;;;;;3.22;0.70;;;22.10;1.00;;;;;;4845076;29;20117;-51
2023/06/04 10:16:56;;;;;;;2.15;1.00;;;22.10;1.00;;;;;;4835722;29;20579;-49
2023/06/04 10:19:24;;;;;;;5.15;1.25;;;22.00;1.00;;;;;;4836690;29;20037;-50
2023/06/04 10:21:52;;;;;;;5.57;1.52;;;22.00;1.00;;;;;;4839963;29;20443;-51
2023/06/04 10:24:20;;;;;;;3.85;0.95;;;22.00;1.00;;;;;;4840332;29;20129;-49
2023/06/04 10:26:48;;;;;;;4.82;1.02;;;22.00;1.00;;;;;;4847507;29;20076;-52
2023/06/04 10:29:15;;;;;;;3.67;0.93;;;22.00;1.00;;;;;;4859340;29;20049;-51
2023/06/04 10:31:43;;;;;;;4.07;1.30;;;22.00;1.00;;;;;;5141153;23;20049;-48
2023/06/04 10:34:10;;;;;;;3.65;1.63;;;21.90;1.00;;;;;;4866851;29;20065;-51
2023/06/04 10:36:45;;;;;;;3.88;1.23;;;21.90;1.00;;;;;;4870865;29;20041;-51
2023/06/04 10:39:12;;;;;;;2.92;0.90;;;22.00;1.00;;;;;;4876569;29;20041;-48
2023/06/04 10:41:39;;;;;;;2.67;0.95;;;21.90;1.00;;;;;;4872944;29;20511;-49
2023/06/04 10:44:06;;;;;;;5.18;1.33;;;21.90;1.00;;;;;;4877802;29;20048;-51
2023/06/04 10:46:40;;;;;;;3.17;0.70;;;21.90;1.00;;;;;;4881575;29;20048;-49
2023/06/04 10:49:10;;;;;;;1.52;0.63;;;21.90;1.00;;;;;;4880200;29;20053;-54
2023/06/04 10:51:37;;;;;;;6.65;0.95;;;21.90;1.00;;;;;;4881751;29;20378;-56
2023/06/04 10:54:04;;;;;;;2.47;1.30;;;21.90;1.00;;;;;;4881253;29;20045;-48
2023/06/04 10:56:32;;;;;;;2.58;1.27;;;21.90;1.00;;;;;;4881311;29;20041;-50
2023/06/04 10:59:00;;;;;;;2.80;1.10;;;21.80;1.00;;;;;;4881149;29;20044;-52
2023/06/04 11:01:31;;;;;;;2.33;0.93;;;21.80;1.00;;;;;;4873408;29;20045;-54
2023/06/04 11:03:58;;;;;;;4.13;1.17;;;21.80;1.00;;;;;;4964366;23;20132;-52
2023/06/04 11:06:28;;;;;;;3.08;1.10;;;21.80;1.00;;;;;;4901642;29;20584;-49
2023/06/04 11:09:05;;;;;;;4.25;0.82;;;21.80;1.00;;;;;;4899753;29;20044;-48
2023/06/04 11:11:32;;;;;;;3.55;1.00;;;21.80;1.00;;;;;;4899750;29;20052;-47
2023/06/04 11:14:10;;;;;;;1.77;0.80;;;21.80;1.00;;;;;;4899344;29;20447;-53
2023/06/04 11:16:36;;;;;;;1.77;0.77;;;21.70;1.00;;;;;;4899737;29;20115;-49
2023/06/04 11:19:03;;;;;;;3.55;1.20;;;21.80;1.00;;;;;;4899556;29;20048;-52
2023/06/04 11:21:33;;;;;;;3.00;1.73;;;21.70;1.00;;;;;;4893402;29;20058;-48
2023/06/04 11:24:01;;;;;;;3.35;1.10;;;21.70;1.00;;;;;;4907196;29;20067;-50
2023/06/04 11:26:35;;;;;;;2.97;0.82;;;21.70;1.00;;;;;;4898172;29;20045;-51
2023/06/04 11:29:07;;;;;;;2.65;1.00;;;21.70;1.00;;;;;;4899244;29;20112;-48
2023/06/04 11:31:44;;;;;;;2.80;1.27;;;21.70;1.00;;;;;;4899385;29;20068;-50
2023/06/04 11:34:21;;;;;;;3.10;1.20;;;21.70;1.00;;;;;;4897719;29;20044;-52
2023/06/04 11:36:49;;;;;;;1.65;0.90;;;21.70;1.00;;;;;;4905204;29;20119;-48
2023/06/04 11:39:16;;;;;;;1.48;0.52;;;21.70;1.00;;;;;;4900876;29;20048;-53
2023/06/04 11:41:43;;;;;;;2.33;0.98;;;21.60;1.00;;;;;;4907072;29;20051;-47
2023/06/04 11:44:12;;;;;;;2.88;1.10;;;21.70;1.00;;;;;;4898864;29;20512;-54
2023/06/04 11:46:48;;;;;;;2.10;1.00;;;21.70;1.00;;;;;;4899292;29;20116;-49
2023/06/04 11:49:16;;;;;;;2.47;0.93;;;21.60;1.00;;;;;;4897048;29;20037;-54
2023/06/04 11:51:50;;;;;;;2.95;0.85;;;21.60;1.00;;;;;;4898926;29;20045;-49
2023/06/04 11:54:19;;;;;;;3.65;1.20;;;21.60;1.00;;;;;;4898821;29;20493;-50
2023/06/04 11:56:48;;;;;;;2.30;1.00;;;21.60;1.00;;;;;;4897810;29;20445;-52
2023/06/04 11:59:17;;;;;;;3.50;1.30;;;21.60;1.00;;;;;;4898865;29;20125;-52
2023/06/04 12:01:45;;;;;;;1.50;0.60;;;21.60;1.00;;;;;;4897733;29;20048;-48
2023/06/04 12:04:21;;;;;;;2.58;1.48;;;21.60;1.00;;;;;;4898071;29;20052;-51
2023/06/04 12:06:52;;;;;;;2.42;1.13;;;21.50;1.00;;;;;;4898527;29;20044;-54
2023/06/04 12:09:23;;;;;;;2.38;0.82;;;21.60;1.00;;;;;;4898583;29;20127;-51
2023/06/04 12:11:50;;;;;;;5.32;2.15;;;21.50;1.00;;;;;;4898672;29;20493;-48
2023/06/04 12:14:21;;;;;;;2.13;1.00;;;21.50;1.00;;;;;;4898457;29;20041;-52
2023/06/04 12:16:56;;;;;;;2.85;0.93;;;21.50;1.00;;;;;;4898785;29;20044;-48
2023/06/04 12:19:24;;;;;;;3.28;0.85;;;21.50;1.00;;;;;;4898444;29;20488;-48
2023/06/04 12:22:07;;;;;;;2.60;1.15;;;21.50;1.00;;;;;;4898448;29;20041;-50
2023/06/04 12:24:46;;;;;;;2.10;0.77;;;21.50;1.00;;;;;;4891140;29;20053;-48
2023/06/04 12:27:13;;;;;;;3.13;0.98;;;21.50;1.00;;;;;;4898311;29;20044;-50
2023/06/04 12:29:40;;;;;;;2.22;0.88;;;21.50;1.00;;;;;;4898556;29;20046;-52
2023/06/04 12:32:08;;;;;;;2.45;0.95;;;21.50;1.00;;;;;;4898268;29;20057;-48
2023/06/04 12:34:40;;;;;;;3.08;0.82;;;21.50;1.00;;;;;;4891402;29;20045;-51
2023/06/04 12:37:08;;;;;;;3.08;0.82;;;21.50;1.00;;;;;;4898331;29;20485;-52
2023/06/04 12:39:36;;;;;;;2.47;0.73;;;21.50;1.00;;;;;;4890644;29;20044;-48
2023/06/04 12:42:06;;;;;;;2.53;0.70;;;21.50;1.00;;;;;;4898074;29;20036;-49
2023/06/04 12:44:38;;;;;;;3.05;1.08;;;21.50;1.00;;;;;;4890501;29;20065;-48
2023/06/04 12:47:05;;;;;;;1.25;0.70;;;21.50;1.00;;;;;;4897985;29;20072;-49
2023/06/04 12:49:32;;;;;;;1.60;0.73;;;21.40;1.00;;;;;;4897988;29;20495;-51
2023/06/04 12:51:59;;;;;;;1.95;0.88;;;21.40;1.00;;;;;;4897768;29;20051;-48
2023/06/04 12:54:29;;;;;;;1.63;0.70;;;21.40;1.00;;;;;;4897605;29;20040;-51
2023/06/04 12:56:57;;;;;;;2.72;1.05;;;21.40;1.00;;;;;;4897940;29;20052;-49
2023/06/04 12:59:25;;;;;;;3.17;0.95;;;21.40;1.00;;;;;;4897707;29;20044;-49
2023/06/04 13:01:53;;;;;;;2.58;0.90;;;21.40;1.00;;;;;;4895702;29;20048;-51
2023/06/04 13:04:20;;;;;;;1.67;0.70;;;21.40;1.00;;;;;;4896946;29;20055;-50
2023/06/04 13:06:47;;;;;;;3.83;1.80;;;21.40;1.00;;;;;;5137964;23;20061;-50
2023/06/04 13:09:14;;;;;;;4.70;1.60;;;21.40;1.00;;;;;;4860263;29;20041;-48